createdAt,value
2024-01-26T00:00:51.344Z,95523.56
2024-01-26T00:03:18.772Z,95512.50
2024-01-26T00:05:45.939Z,95519.09
2024-01-26T00:08:16.208Z,95517.03
2024-01-26T00:10:43.265Z,95508.97
2024-01-26T00:13:11.609Z,95513.47
2024-01-26T00:15:38.787Z,95517.91
2024-01-26T00:18:05.893Z,95508.19
2024-01-26T00:20:33.034Z,95519.81
2024-01-26T00:23:00.014Z,95533.97
2024-01-26T00:25:27.010Z,95537.63
2024-01-26T00:27:54.109Z,95537.09
2024-01-26T00:30:21.167Z,95521.19
2024-01-26T00:32:48.130Z,95544.38
2024-01-26T00:35:16.153Z,95527.78
2024-01-26T00:37:43.161Z,95524.69
2024-01-26T00:40:10.556Z,95521.16
2024-01-26T00:42:37.610Z,95526.81
2024-01-26T00:45:05.057Z,95524.41
2024-01-26T00:47:31.978Z,95526.69
2024-01-26T00:49:59.074Z,95525.22
2024-01-26T00:52:26.143Z,95537.09
2024-01-26T00:54:53.068Z,95544.38
2024-01-26T00:57:20.081Z,95540.03
2024-01-26T00:59:47.220Z,95546.81
2024-01-26T01:02:14.198Z,95547.75
2024-01-26T01:04:41.605Z,95550.72
2024-01-26T01:07:08.570Z,95551.81
2024-01-26T01:09:36.107Z,95540.72
2024-01-26T01:12:04.058Z,95546.13
2024-01-26T01:14:31.557Z,95547.19
2024-01-26T01:16:58.477Z,95551.63
2024-01-26T01:19:25.616Z,95544.84
2024-01-26T01:21:52.993Z,95546.13
2024-01-26T01:24:19.978Z,95544.59
2024-01-26T01:26:47.166Z,95547.59
2024-01-26T01:29:14.121Z,95549.19
2024-01-26T01:31:41.129Z,95563.53
2024-01-26T01:34:08.260Z,95554.06
2024-01-26T01:36:35.348Z,95560.81
2024-01-26T01:39:02.634Z,95561.63
2024-01-26T01:41:29.793Z,95564.34
2024-01-26T01:43:57.518Z,95567.56
2024-01-26T01:46:24.602Z,95562.72
2024-01-26T01:48:51.995Z,95557.59
2024-01-26T01:51:19.278Z,95562.69
2024-01-26T01:53:48.104Z,95573.53
2024-01-26T01:56:16.379Z,95559.16
2024-01-26T01:58:43.398Z,95567.03
2024-01-26T02:01:10.494Z,95568.25
2024-01-26T02:03:37.660Z,95558.66
2024-01-26T02:06:05.031Z,95564.06
2024-01-26T02:08:32.059Z,95581.88
2024-01-26T02:10:59.128Z,95579.44
2024-01-26T02:13:26.057Z,95580.38
2024-01-26T02:15:53.036Z,95582.41
2024-01-26T02:18:20.180Z,95566.50
2024-01-26T02:20:52.389Z,95585.16
2024-01-26T02:23:26.095Z,95596.25
2024-01-26T02:25:53.607Z,95596.50
2024-01-26T02:28:20.691Z,95589.63
2024-01-26T02:30:47.712Z,95597.28
2024-01-26T02:33:14.911Z,95604.06
2024-01-26T02:35:42.314Z,95593.50
2024-01-26T02:38:09.268Z,95602.81
2024-01-26T02:40:36.524Z,95606.88
2024-01-26T02:43:03.649Z,95602.41
2024-01-26T02:45:30.534Z,95602.41
2024-01-26T02:47:58.232Z,95595.81
2024-01-26T02:50:25.371Z,95588.94
2024-01-26T02:52:52.411Z,95597.81
2024-01-26T02:55:19.333Z,95596.88
2024-01-26T02:57:46.321Z,95597.16
2024-01-26T03:00:13.965Z,95593.22
2024-01-26T03:02:41.061Z,95584.84
2024-01-26T03:05:08.433Z,95589.19
2024-01-26T03:07:35.346Z,95586.09
2024-01-26T03:10:02.342Z,95597.84
2024-01-26T03:12:29.603Z,95598.13
2024-01-26T03:14:56.952Z,95601.63
2024-01-26T03:17:23.932Z,95606.63
2024-01-26T03:19:50.849Z,95603.78
2024-01-26T03:22:17.949Z,95606.63
2024-01-26T03:24:45.945Z,95599.59
2024-01-26T03:27:13.035Z,95602.72
2024-01-26T03:29:40.120Z,95606.78
2024-01-26T03:32:07.467Z,95602.31
2024-01-26T03:34:34.653Z,95604.06
2024-01-26T03:37:01.598Z,95615.13
2024-01-26T03:39:28.699Z,95606.72
2024-01-26T03:41:55.787Z,95617.41
2024-01-26T03:44:23.245Z,95618.91
2024-01-26T03:46:50.210Z,95591.63
2024-01-26T03:49:17.269Z,95612.28
2024-01-26T03:51:44.314Z,95619.97
2024-01-26T03:54:11.543Z,95617.81
2024-01-26T03:56:38.795Z,95617.38
2024-01-26T03:59:05.789Z,95615.34
2024-01-26T04:01:32.737Z,95628.56
2024-01-26T04:03:59.773Z,95635.47
2024-01-26T04:06:26.796Z,95619.69
2024-01-26T04:08:56.237Z,95636.41
2024-01-26T04:11:23.497Z,95629.13
2024-01-26T04:13:50.476Z,95635.09
2024-01-26T04:16:17.537Z,95627.53
2024-01-26T04:18:45.449Z,95636.94
2024-01-26T04:21:12.572Z,95631.75
2024-01-26T04:23:39.614Z,95638.50
2024-01-26T04:26:07.334Z,95650.25
2024-01-26T04:28:34.340Z,95647.53
2024-01-26T04:31:01.561Z,95641.97
2024-01-26T04:33:28.666Z,95659.31
2024-01-26T04:35:56.160Z,95656.34
2024-01-26T04:38:23.225Z,95655.09
2024-01-26T04:40:50.177Z,95653.75
2024-01-26T04:43:17.114Z,95658.06
2024-01-26T04:45:43.985Z,95653.97
2024-01-26T04:48:11.119Z,95648.16
2024-01-26T04:50:38.098Z,95654.69
2024-01-26T04:53:05.010Z,95668.19
2024-01-26T04:55:31.907Z,95659.16
2024-01-26T04:57:58.834Z,95638.75
2024-01-26T05:00:26.256Z,95666.31
2024-01-26T05:02:53.351Z,95657.81
2024-01-26T05:05:20.332Z,95657.78
2024-01-26T05:07:47.281Z,95674.53
2024-01-26T05:10:14.375Z,95678.06
2024-01-26T05:12:41.504Z,95669.97
2024-01-26T05:15:12.858Z,95670.25
2024-01-26T05:17:40.483Z,95666.44
2024-01-26T05:20:08.354Z,95663.19
2024-01-26T05:22:35.762Z,95666.28
2024-01-26T05:25:02.910Z,95667.25
2024-01-26T05:27:30.430Z,95667.41
2024-01-26T05:29:57.498Z,95674.00
2024-01-26T05:32:24.684Z,95667.13
2024-01-26T05:34:51.792Z,95676.84
2024-01-26T05:37:18.845Z,95654.84
2024-01-26T05:39:45.918Z,95673.72
2024-01-26T05:42:13.145Z,95672.94
2024-01-26T05:44:40.153Z,95670.38
2024-01-26T05:47:07.358Z,95660.78
2024-01-26T05:49:35.197Z,95676.44
2024-01-26T05:52:02.571Z,95676.06
2024-01-26T05:54:29.575Z,95668.38
2024-01-26T05:56:56.707Z,95683.34
2024-01-26T05:59:23.771Z,95678.34
2024-01-26T06:01:50.753Z,95684.41
2024-01-26T06:04:17.864Z,95693.63
2024-01-26T06:06:45.131Z,95696.00
2024-01-26T06:09:12.237Z,95678.34
2024-01-26T06:11:43.517Z,95685.38
2024-01-26T06:14:10.545Z,95692.94
2024-01-26T06:16:37.546Z,95694.16
2024-01-26T06:19:05.509Z,95696.19
2024-01-26T06:21:32.912Z,95697.28
2024-01-26T06:24:00.880Z,95704.16
2024-01-26T06:26:28.081Z,95717.56
2024-01-26T06:28:55.112Z,95724.88
2024-01-26T06:31:28.507Z,95724.44
2024-01-26T06:33:56.010Z,95732.69
2024-01-26T06:36:23.108Z,95734.19
2024-01-26T06:38:50.371Z,95732.97
2024-01-26T06:41:17.498Z,95737.28
2024-01-26T06:43:52.007Z,95748.91
2024-01-26T06:46:24.069Z,95734.84
2024-01-26T06:48:52.112Z,95742.97
2024-01-26T06:51:19.874Z,95741.75
2024-01-26T06:53:47.006Z,95740.13
2024-01-26T06:56:14.145Z,95758.78
2024-01-26T06:58:41.221Z,95757.56
2024-01-26T07:01:08.395Z,95749.03
2024-01-26T07:03:35.557Z,95747.03
2024-01-26T07:06:03.332Z,95750.41
2024-01-26T07:08:30.562Z,95760.81
2024-01-26T07:10:57.551Z,95763.50
2024-01-26T07:13:24.987Z,95768.91
2024-01-26T07:15:51.967Z,95772.13
2024-01-26T07:18:19.091Z,95779.97
2024-01-26T07:20:46.348Z,95777.53
2024-01-26T07:23:13.377Z,95781.84
2024-01-26T07:25:40.339Z,95775.47
2024-01-26T07:28:08.716Z,95786.56
2024-01-26T07:30:35.744Z,95790.19
2024-01-26T07:33:02.893Z,95786.44
2024-01-26T07:35:30.002Z,95790.03
2024-01-26T07:37:56.997Z,95787.69
2024-01-26T07:40:23.921Z,95791.34
2024-01-26T07:42:50.903Z,95793.25
2024-01-26T07:45:17.867Z,95803.00
2024-01-26T07:47:44.949Z,95802.66
2024-01-26T07:50:12.109Z,95843.13
2024-01-26T07:52:40.168Z,95877.72
2024-01-26T07:55:10.208Z,95857.69
2024-01-26T07:57:39.188Z,95850.03
2024-01-26T08:00:10.185Z,95787.28
2024-01-26T08:02:37.470Z,95742.50
2024-01-26T08:05:05.657Z,95728.16
2024-01-26T08:07:33.641Z,95738.00
2024-01-26T08:10:01.547Z,95724.66
2024-01-26T08:12:38.586Z,95732.09
2024-01-26T08:15:11.993Z,95724.69
2024-01-26T08:17:40.056Z,95723.31
2024-01-26T08:20:09.237Z,95730.09
2024-01-26T08:22:41.954Z,95729.19
2024-01-26T08:25:09.780Z,95731.72
2024-01-26T08:27:37.615Z,95741.19
2024-01-26T08:30:05.988Z,95747.22
2024-01-26T08:32:33.186Z,95746.63
2024-01-26T08:35:00.472Z,95755.78
2024-01-26T08:37:27.682Z,95750.56
2024-01-26T08:39:55.651Z,95761.78
2024-01-26T08:42:23.507Z,95763.75
2024-01-26T08:44:50.576Z,95768.34
2024-01-26T08:47:17.610Z,95770.09
2024-01-26T08:49:44.866Z,95770.25
2024-01-26T08:52:12.125Z,95762.31
2024-01-26T08:54:39.180Z,95774.75
2024-01-26T08:57:06.759Z,95778.25
2024-01-26T08:59:34.028Z,95770.44
2024-01-26T09:02:02.428Z,95783.78
2024-01-26T09:04:29.332Z,95794.25
2024-01-26T09:07:00.533Z,95790.97
2024-01-26T09:09:35.115Z,95785.03
2024-01-26T09:12:02.166Z,95787.75
2024-01-26T09:14:30.101Z,95801.78
2024-01-26T09:16:57.235Z,95807.88
2024-01-26T09:19:24.637Z,95814.94
2024-01-26T09:21:52.577Z,95814.13
2024-01-26T09:24:19.940Z,95825.41
2024-01-26T09:26:47.249Z,95822.97
2024-01-26T09:29:14.345Z,95834.47
2024-01-26T09:31:41.501Z,95837.31
2024-01-26T09:34:09.561Z,95841.91
2024-01-26T09:36:36.751Z,95841.81
2024-01-26T09:39:04.207Z,95854.44
2024-01-26T09:41:31.488Z,95849.94
2024-01-26T09:43:58.441Z,95855.69
2024-01-26T09:46:25.633Z,95832.59
2024-01-26T09:48:56.937Z,95827.41
2024-01-26T09:51:25.454Z,95832.34
2024-01-26T09:53:55.986Z,95835.25
2024-01-26T09:56:23.200Z,95834.97
2024-01-26T09:58:50.420Z,95832.88
2024-01-26T10:01:24.810Z,95826.69
2024-01-26T10:03:54.226Z,95824.94
2024-01-26T10:06:22.220Z,95830.66
2024-01-26T10:08:49.493Z,95826.31
2024-01-26T10:11:16.650Z,95818.56
2024-01-26T10:13:43.764Z,95822.28
2024-01-26T10:16:14.494Z,95825.41
2024-01-26T10:18:44.875Z,95811.25
2024-01-26T10:21:13.391Z,95800.47
2024-01-26T10:23:40.980Z,95795.25
2024-01-26T10:26:09.091Z,95792.72
2024-01-26T10:28:36.284Z,95788.66
2024-01-26T10:31:03.406Z,95775.31
2024-01-26T10:33:32.701Z,95774.50
2024-01-26T10:36:01.846Z,95768.69
2024-01-26T10:38:32.907Z,95772.53
2024-01-26T10:41:04.437Z,95762.19
2024-01-26T10:43:33.416Z,95759.44
2024-01-26T10:46:03.567Z,95757.03
2024-01-26T10:48:31.422Z,95759.81
2024-01-26T10:50:59.833Z,95755.91
2024-01-26T10:53:28.643Z,95747.22
2024-01-26T10:55:56.244Z,95731.31
2024-01-26T10:58:23.631Z,95738.75
2024-01-26T11:00:50.910Z,95735.53
2024-01-26T11:03:18.116Z,95730.41
2024-01-26T11:05:52.034Z,95728.16
2024-01-26T11:08:26.141Z,95732.41
2024-01-26T11:10:55.524Z,95728.16
2024-01-26T11:13:24.542Z,95726.84
2024-01-26T11:15:52.354Z,95718.94
2024-01-26T11:18:26.688Z,95713.97
2024-01-26T11:20:54.225Z,95702.47
2024-01-26T11:23:22.612Z,95700.81
2024-01-26T11:25:54.516Z,95705.47
2024-01-26T11:28:26.736Z,95709.22
2024-01-26T11:31:01.222Z,95696.81
2024-01-26T11:33:37.252Z,95702.78
2024-01-26T11:36:21.288Z,95700.41
2024-01-26T11:38:55.153Z,95697.19
2024-01-26T11:41:23.318Z,95700.75
2024-01-26T11:43:53.604Z,95692.34
2024-01-26T11:46:21.286Z,95697.53
2024-01-26T11:48:48.550Z,95692.72
2024-01-26T11:51:16.344Z,95702.09
2024-01-26T11:53:43.498Z,95699.00
2024-01-26T11:56:10.826Z,95694.50
2024-01-26T11:58:39.582Z,95700.47
2024-01-26T12:01:07.908Z,95697.41
2024-01-26T12:03:36.611Z,95685.78
2024-01-26T12:06:04.925Z,95687.22
2024-01-26T12:08:32.728Z,95677.69
2024-01-26T12:11:00.772Z,95685.63
2024-01-26T12:13:27.979Z,95684.81
2024-01-26T12:15:55.154Z,95674.63
2024-01-26T12:18:24.420Z,95671.38
2024-01-26T12:20:52.125Z,95668.81
2024-01-26T12:23:20.088Z,95672.34
2024-01-26T12:25:51.165Z,95657.09
2024-01-26T12:28:18.616Z,95652.47
2024-01-26T12:30:48.695Z,95660.19
2024-01-26T12:33:16.393Z,95653.19
2024-01-26T12:35:43.841Z,95650.44
2024-01-26T12:38:11.404Z,95637.75
2024-01-26T12:40:38.510Z,95632.31
2024-01-26T12:43:06.316Z,95613.59
2024-01-26T12:45:33.766Z,95607.78
2024-01-26T12:48:01.214Z,95601.00
2024-01-26T12:50:28.711Z,95603.31
2024-01-26T12:52:55.902Z,95593.47
2024-01-26T12:55:25.002Z,95595.88
2024-01-26T12:57:53.662Z,95588.56
2024-01-26T13:00:21.608Z,95576.44
2024-01-26T13:02:48.989Z,95570.34
2024-01-26T13:05:16.204Z,95563.63
2024-01-26T13:07:43.264Z,95536.81
2024-01-26T13:10:10.821Z,95528.97
2024-01-26T13:12:37.848Z,95527.44
2024-01-26T13:15:05.527Z,95519.75
2024-01-26T13:17:32.648Z,95510.28
2024-01-26T13:20:05.516Z,95490.22
2024-01-26T13:22:39.862Z,95483.88
2024-01-26T13:25:07.223Z,95483.34
2024-01-26T13:27:34.242Z,95481.19
2024-01-26T13:30:01.691Z,95477.50
2024-01-26T13:32:29.046Z,95475.84
2024-01-26T13:34:58.741Z,95472.50
2024-01-26T13:37:26.965Z,95431.31
2024-01-26T13:39:53.995Z,95412.84
2024-01-26T13:42:22.960Z,95384.91
2024-01-26T13:44:50.540Z,95374.09
2024-01-26T13:47:17.718Z,95345.09
2024-01-26T13:49:46.565Z,95345.38
2024-01-26T13:52:14.108Z,95354.00
2024-01-26T13:54:41.186Z,95346.34
2024-01-26T13:57:08.319Z,95321.41
2024-01-26T13:59:36.270Z,95308.19
2024-01-26T14:02:03.564Z,95283.78
2024-01-26T14:04:30.748Z,95288.00
2024-01-26T14:06:58.204Z,95280.75
2024-01-26T14:09:25.463Z,95253.91
2024-01-26T14:11:52.598Z,95216.13
2024-01-26T14:14:23.885Z,95208.41
2024-01-26T14:16:51.346Z,95179.56
2024-01-26T14:19:18.905Z,95151.84
2024-01-26T14:21:45.960Z,95126.16
2024-01-26T14:24:13.036Z,95108.56
2024-01-26T14:26:40.103Z,95091.59
2024-01-26T14:29:11.817Z,95073.19
2024-01-26T14:31:40.171Z,95075.59
2024-01-26T14:34:07.544Z,95062.41
2024-01-26T14:36:35.618Z,95063.88
2024-01-26T14:39:05.437Z,95090.38
2024-01-26T14:41:33.204Z,95085.50
2024-01-26T14:44:00.883Z,95104.66
2024-01-26T14:46:30.876Z,95087.13
2024-01-26T14:48:58.361Z,95102.19
2024-01-26T14:51:25.552Z,95126.59
2024-01-26T14:53:52.608Z,95126.53
2024-01-26T14:56:21.198Z,95139.19
2024-01-26T14:58:48.216Z,95153.88
2024-01-26T15:01:15.306Z,95185.25
2024-01-26T15:03:42.622Z,95199.88
2024-01-26T15:06:09.979Z,95193.94
2024-01-26T15:08:37.102Z,95213.59
2024-01-26T15:11:04.275Z,95222.25
2024-01-26T15:13:31.279Z,95215.53
2024-01-26T15:15:58.327Z,95231.25
2024-01-26T15:18:25.637Z,95271.91
2024-01-26T15:20:52.938Z,95264.31
2024-01-26T15:23:20.867Z,95274.84
2024-01-26T15:25:48.750Z,95294.59
2024-01-26T15:28:20.759Z,95305.50
2024-01-26T15:30:47.798Z,95297.38
2024-01-26T15:33:15.203Z,95289.16
2024-01-26T15:35:42.438Z,95309.06
2024-01-26T15:38:10.197Z,95300.13
2024-01-26T15:40:37.552Z,95300.75
2024-01-26T15:43:05.353Z,95296.22
2024-01-26T15:45:32.376Z,95308.22
2024-01-26T15:48:00.503Z,95321.78
2024-01-26T15:50:27.759Z,95341.00
2024-01-26T15:52:54.745Z,95339.81
2024-01-26T15:55:21.764Z,95340.13
2024-01-26T15:57:48.754Z,95343.38
2024-01-26T16:00:16.451Z,95348.06
2024-01-26T16:02:43.748Z,95349.50
2024-01-26T16:05:12.248Z,95351.56
2024-01-26T16:07:39.550Z,95370.03
2024-01-26T16:10:07.652Z,95383.88
2024-01-26T16:12:37.130Z,95380.56
2024-01-26T16:15:07.646Z,95383.91
2024-01-26T16:17:35.821Z,95380.91
2024-01-26T16:20:03.578Z,95385.19
2024-01-26T16:22:30.639Z,95385.97
2024-01-26T16:24:57.613Z,95382.81
2024-01-26T16:27:24.690Z,95376.81
2024-01-26T16:29:51.767Z,95384.91
2024-01-26T16:32:19.070Z,95386.16
2024-01-26T16:34:46.175Z,95397.44
2024-01-26T16:37:13.266Z,95394.31
2024-01-26T16:39:40.447Z,95409.34
2024-01-26T16:42:07.761Z,95407.91
2024-01-26T16:44:34.870Z,95416.00
2024-01-26T16:47:02.117Z,95414.50
2024-01-26T16:49:29.287Z,95407.75
2024-01-26T16:52:01.939Z,95411.84
2024-01-26T16:54:32.433Z,95411.03
2024-01-26T16:56:59.908Z,95390.19
2024-01-26T16:59:27.253Z,95401.03
2024-01-26T17:01:54.393Z,95398.81
2024-01-26T17:04:21.696Z,95403.31
2024-01-26T17:06:50.217Z,95396.59
2024-01-26T17:09:17.329Z,95400.06
2024-01-26T17:11:44.400Z,95366.75
2024-01-26T17:14:11.457Z,95393.25
2024-01-26T17:16:40.651Z,95402.91
2024-01-26T17:19:07.843Z,95415.38
2024-01-26T17:21:36.083Z,95419.06
2024-01-26T17:24:03.246Z,95430.91
2024-01-26T17:26:30.333Z,95422.03
2024-01-26T17:28:57.766Z,95431.38
2024-01-26T17:31:24.931Z,95442.97
2024-01-26T17:33:54.430Z,95443.53
2024-01-26T17:36:22.002Z,95443.69
2024-01-26T17:38:49.123Z,95446.59
2024-01-26T17:41:16.268Z,95449.44
2024-01-26T17:43:43.652Z,95437.22
2024-01-26T17:46:12.048Z,95457.41
2024-01-26T17:48:39.596Z,95453.06
2024-01-26T17:51:06.715Z,95461.16
2024-01-26T17:53:33.728Z,95459.34
2024-01-26T17:56:02.125Z,95469.94
2024-01-26T17:58:29.608Z,95462.69
2024-01-26T18:00:56.639Z,95458.47
2024-01-26T18:03:23.810Z,95471.19
2024-01-26T18:05:51.434Z,95473.19
2024-01-26T18:08:18.540Z,95494.88
2024-01-26T18:10:45.866Z,95491.47
2024-01-26T18:13:12.914Z,95503.44
2024-01-26T18:15:40.323Z,95513.09
2024-01-26T18:18:07.877Z,95518.44
2024-01-26T18:20:35.724Z,95527.97
2024-01-26T18:23:02.659Z,95534.09
2024-01-26T18:25:29.818Z,95544.75
2024-01-26T18:27:56.845Z,95555.09
2024-01-26T18:30:24.145Z,95563.63
2024-01-26T18:32:51.754Z,95580.94
2024-01-26T18:35:18.926Z,95581.56
2024-01-26T18:37:46.024Z,95577.03
2024-01-26T18:40:13.914Z,95561.22
2024-01-26T18:42:41.202Z,95560.25
2024-01-26T18:45:09.346Z,95547.34
2024-01-26T18:47:36.942Z,95548.28
2024-01-26T18:50:06.563Z,95571.38
2024-01-26T18:52:33.917Z,95557.66
2024-01-26T18:55:01.597Z,95541.19
2024-01-26T18:57:29.646Z,95544.59
2024-01-26T20:29:07.547Z,95615.78
2024-01-26T20:31:37.163Z,95621.13
2024-01-26T20:34:04.596Z,95620.50
2024-01-26T20:36:31.745Z,95616.25
2024-01-26T20:39:00.177Z,95621.13
2024-01-26T20:41:29.121Z,95653.28
2024-01-26T20:43:56.128Z,95649.75
2024-01-26T20:46:23.134Z,95666.22
2024-01-26T20:48:50.570Z,95690.09
2024-01-26T20:51:18.022Z,95696.53
2024-01-26T20:53:47.448Z,95683.63
2024-01-26T20:56:14.965Z,95678.69
2024-01-26T20:58:42.541Z,95702.97
2024-01-26T21:01:10.246Z,95741.19
2024-01-26T21:03:37.749Z,95741.03
2024-01-26T21:06:05.559Z,95768.59
2024-01-26T21:08:32.596Z,95745.97
2024-01-26T21:10:59.478Z,95763.19
2024-01-26T21:13:26.646Z,95783.91
2024-01-26T21:15:54.001Z,95790.69
2024-01-26T21:18:21.682Z,95840.03
2024-01-26T21:20:49.029Z,95827.34
2024-01-26T21:23:16.370Z,95865.41
2024-01-26T21:25:43.688Z,95857.84
2024-01-26T21:28:10.768Z,95897.16
2024-01-26T21:30:38.394Z,95857.50
2024-01-26T21:33:06.095Z,95811.19
2024-01-26T21:35:34.454Z,95791.69
2024-01-26T21:38:01.420Z,95733.03
2024-01-26T21:40:28.454Z,95717.66
2024-01-26T21:42:55.728Z,95705.47
2024-01-26T21:45:22.740Z,95696.16
2024-01-26T21:47:49.959Z,95660.38
2024-01-26T21:50:19.914Z,95669.63
2024-01-26T21:52:49.324Z,95694.03
2024-01-26T21:55:17.216Z,95721.31
2024-01-26T21:57:44.173Z,95749.41
2024-01-26T22:00:11.745Z,95757.31
2024-01-26T22:02:38.806Z,95791.31
2024-01-26T22:05:05.867Z,95786.81
2024-01-26T22:07:32.740Z,95788.41
2024-01-26T22:09:59.821Z,95795.66
2024-01-26T22:12:27.114Z,95796.28
2024-01-26T22:14:54.270Z,95801.13
2024-01-26T22:17:21.187Z,95813.66
2024-01-26T22:19:48.586Z,95833.00
2024-01-26T22:22:15.663Z,95845.16
2024-01-26T22:24:44.188Z,95854.84
2024-01-26T22:27:11.250Z,95849.00
2024-01-26T22:29:38.286Z,95878.00
2024-01-26T22:32:05.479Z,95868.69
2024-01-26T22:34:32.397Z,95873.19
2024-01-26T22:36:59.357Z,95889.31
2024-01-26T22:39:26.357Z,95902.16
2024-01-26T22:41:54.385Z,95897.44
2024-01-26T22:44:21.396Z,95901.63
2024-01-26T22:46:48.284Z,95912.59
2024-01-26T22:49:15.524Z,95903.13
2024-01-26T22:51:42.573Z,95895.28
2024-01-26T22:54:09.618Z,95897.03
2024-01-26T22:56:37.467Z,95893.94
2024-01-26T22:59:05.496Z,95891.34
2024-01-26T23:01:32.578Z,95888.50
2024-01-26T23:03:59.623Z,95866.84
2024-01-26T23:06:26.909Z,95872.81
2024-01-26T23:08:54.440Z,95859.97
2024-01-26T23:11:22.174Z,95840.59
2024-01-26T23:13:49.370Z,95846.81
2024-01-26T23:16:18.525Z,95827.34
2024-01-26T23:18:45.831Z,95813.28
2024-01-26T23:21:13.839Z,95792.41
2024-01-26T23:23:40.776Z,95768.97
2024-01-26T23:26:07.780Z,95777.91
2024-01-26T23:28:36.184Z,95762.34
2024-01-26T23:31:03.139Z,95744.91
2024-01-26T23:33:30.930Z,95730.28
2024-01-26T23:35:57.915Z,95734.78
2024-01-26T23:38:24.916Z,95730.47
2024-01-26T23:40:52.067Z,95749.72
2024-01-26T23:43:20.412Z,95757.28
2024-01-26T23:45:47.379Z,95750.81
2024-01-26T23:48:14.708Z,95737.75
2024-01-26T23:50:42.265Z,95746.88
2024-01-26T23:53:09.302Z,95763.66
2024-01-26T23:55:36.318Z,95772.44
2024-01-26T23:58:03.243Z,95750.53
